Record high temperature 42.2°C Record low temperature -14.6°C Record high gust 76.2 km/h Record high average 96.8 km/h Record daily rain 55.3 mm Record low windchill -17.5°C Record high barometer 1046.0 hPa Record low barometer 969.0 hPa
Daily high pressure 1034.0 hPa Daily low pressure 1032.0 hPa Daily low windchill 10.2°C Daily high heat index 23.7°C Daily high gust speed 15.7 kmh N Daily high average speed 11.1 kmh N

This page is updated from recent data collected by a WMR200 weather station Use the Reload or Refresh facility on your browser to retrieve the latest data.

Status report of weather station: Bienvenue sur la Station Météo de Godarville



Weather report/warning/Metars

Alexandroupoli Airport , Greece (LGAL) 40-51N 025-55E 3M
May 25, 2020 - 05:50 AM EDT / 2020.05.25 0950 UTC
Wind: from the NE (050 degrees) at 7 MPH (6 KT):0
Visibility: greater than 7 mile(s):0
Sky conditions: mostly clear
Temperature: 71 F (22 C)
Dew Point: 51 F (11 C)
Relative Humidity: 49%
Pressure (altimeter): 30.15 in. Hg (1021 hPa)
ob: LGAL 250950Z 05006KT 9999 FEW025 22/11 Q1021
cycle: 10

Charleroi / Gosselies, Belgium (EBCI) 50-28N 004-27E 192M
May 25, 2020 - 05:50 AM EDT / 2020.05.25 0950 UTC
Wind: from the NE (040 degrees) at 9 MPH (8 KT) (direction variable):0
Visibility: greater than 7 mile(s):0
Temperature: 64 F (18 C)
Dew Point: 48 F (9 C)
Relative Humidity: 55%
Pressure (altimeter): 30.56 in. Hg (1035 hPa)
ob: EBCI 250950Z AUTO 04008KT 320V070 CAVOK 18/09 Q1035
cycle: 10

Bruxelles National, Belgium (EBBR) 50-54N 004-32E 58M
May 25, 2020 - 05:50 AM EDT / 2020.05.25 0950 UTC
Wind: from the N (360 degrees) at 9 MPH (8 KT) (direction variable):0
Visibility: greater than 7 mile(s):0
Sky conditions: partly cloudy
Temperature: 64 F (18 C)
Dew Point: 44 F (7 C)
Relative Humidity: 48%
Pressure (altimeter): 30.56 in. Hg (1035 hPa)
ob: EBBR 250950Z 36008KT 330V030 9999 SCT035 18/07 Q1035 NOSIG
cycle: 10

Koksijde, Belgium (EBFN) 51-05N 002-39E 9M
May 25, 2020 - 05:55 AM EDT / 2020.05.25 0955 UTC
Wind: from the N (360 degrees) at 7 MPH (6 KT):0
Visibility: greater than 7 mile(s):0
Sky conditions: mostly clear
Temperature: 64 F (18 C)
Dew Point: 50 F (10 C)
Relative Humidity: 59%
Pressure (altimeter): 30.56 in. Hg (1035 hPa)
ob: EBFN 250955Z 36006KT 9999 FEW032 18/10 Q1035 BLU BLU
cycle: 10

Poznan, Poland (EPPO) 52-25N 016-50E 92M
May 25, 2020 - 06:00 AM EDT / 2020.05.25 1000 UTC
Wind: from the NNW (330 degrees) at 7 MPH (6 KT):0
Visibility: greater than 7 mile(s):0
Sky conditions: mostly cloudy
Temperature: 55 F (13 C)
Dew Point: 48 F (9 C)
Relative Humidity: 76%
Pressure (altimeter): 30.24 in. Hg (1024 hPa)
ob: EPPO 251000Z 33006KT 9999 BKN016 13/09 Q1024 
cycle: 10



Coucher du Soleil:
21:36:54

Lever de Lune:
06:58:51 24/05/20

Coucher de Lune:
23:21:50 24/05/20

Premier Quartier 30 mai 2020
Pleine Lune 5 juin 2020
Dernier Quartier 13 juin 2020
Nouvelle Lune 21 juin 2020
Âge de lune : 2 jours,1 heures,45 minutes,5%
Les heures du jour possible étaient aujourd’hui 15:53



The data is logged at two minute intervals, but there is data recorded every minute.

Use the RELOAD facility on your browser to retrieve the latest data.

Click here for a daily update of the averages/extremes to date for the month
Created by "Weather Display" software version 10.37P at this start time/date 21:14:15 17/05/2020